sensor_id;sensor_type;location;lat;lon;timestamp;P1;durP1;ratioP1;P2;durP2;ratioP2
68300;SDS011;55146;47.468;18.806;2023-04-26T00:01:17;8.27;;;5.53;;
68300;SDS011;55146;47.468;18.806;2023-04-26T00:03:42;8.80;;;6.67;;
68300;SDS011;55146;47.468;18.806;2023-04-26T00:06:07;10.17;;;6.20;;
68300;SDS011;55146;47.468;18.806;2023-04-26T00:08:36;9.48;;;6.18;;
68300;SDS011;55146;47.468;18.806;2023-04-26T00:11:02;10.73;;;6.12;;
68300;SDS011;55146;47.468;18.806;2023-04-26T00:13:27;8.83;;;5.90;;
68300;SDS011;55146;47.468;18.806;2023-04-26T00:15:53;9.23;;;5.77;;
68300;SDS011;55146;47.468;18.806;2023-04-26T00:18:18;9.77;;;5.67;;
68300;SDS011;55146;47.468;18.806;2023-04-26T00:20:43;9.10;;;6.00;;
68300;SDS011;55146;47.468;18.806;2023-04-26T00:23:09;8.98;;;5.72;;
68300;SDS011;55146;47.468;18.806;2023-04-26T00:25:35;11.93;;;5.63;;
68300;SDS011;55146;47.468;18.806;2023-04-26T00:28:00;9.00;;;5.85;;
68300;SDS011;55146;47.468;18.806;2023-04-26T00:30:26;8.60;;;6.27;;
68300;SDS011;55146;47.468;18.806;2023-04-26T00:32:51;8.27;;;5.63;;
68300;SDS011;55146;47.468;18.806;2023-04-26T00:35:17;8.48;;;5.80;;
68300;SDS011;55146;47.468;18.806;2023-04-26T00:37:43;11.07;;;6.10;;
68300;SDS011;55146;47.468;18.806;2023-04-26T00:40:08;8.20;;;5.67;;
68300;SDS011;55146;47.468;18.806;2023-04-26T00:42:34;8.93;;;5.50;;
68300;SDS011;55146;47.468;18.806;2023-04-26T00:44:59;8.63;;;6.57;;
68300;SDS011;55146;47.468;18.806;2023-04-26T00:47:25;8.20;;;5.53;;
68300;SDS011;55146;47.468;18.806;2023-04-26T00:49:53;9.30;;;6.13;;
68300;SDS011;55146;47.468;18.806;2023-04-26T00:52:18;8.07;;;5.63;;
68300;SDS011;55146;47.468;18.806;2023-04-26T00:54:44;8.43;;;5.65;;
68300;SDS011;55146;47.468;18.806;2023-04-26T00:57:09;7.07;;;4.83;;
68300;SDS011;55146;47.468;18.806;2023-04-26T00:59:36;7.78;;;5.00;;
68300;SDS011;55146;47.468;18.806;2023-04-26T01:02:02;9.07;;;6.17;;
68300;SDS011;55146;47.468;18.806;2023-04-26T01:04:28;8.40;;;5.28;;
68300;SDS011;55146;47.468;18.806;2023-04-26T01:06:54;8.63;;;5.62;;
68300;SDS011;55146;47.468;18.806;2023-04-26T01:09:20;8.80;;;5.78;;
68300;SDS011;55146;47.468;18.806;2023-04-26T01:11:46;8.57;;;5.67;;
68300;SDS011;55146;47.468;18.806;2023-04-26T01:14:12;7.80;;;5.60;;
68300;SDS011;55146;47.468;18.806;2023-04-26T01:16:38;8.75;;;6.40;;
68300;SDS011;55146;47.468;18.806;2023-04-26T01:19:08;8.63;;;5.90;;
68300;SDS011;55146;47.468;18.806;2023-04-26T01:21:37;9.30;;;6.45;;
68300;SDS011;55146;47.468;18.806;2023-04-26T01:24:04;8.27;;;5.68;;
68300;SDS011;55146;47.468;18.806;2023-04-26T01:26:29;9.00;;;5.85;;
68300;SDS011;55146;47.468;18.806;2023-04-26T01:28:56;8.67;;;6.67;;
68300;SDS011;55146;47.468;18.806;2023-04-26T01:31:21;8.63;;;5.93;;
68300;SDS011;55146;47.468;18.806;2023-04-26T01:33:47;10.07;;;6.73;;
68300;SDS011;55146;47.468;18.806;2023-04-26T01:36:12;7.03;;;4.90;;
68300;SDS011;55146;47.468;18.806;2023-04-26T01:38:37;8.60;;;5.40;;
68300;SDS011;55146;47.468;18.806;2023-04-26T01:41:03;11.03;;;6.27;;
68300;SDS011;55146;47.468;18.806;2023-04-26T01:43:28;9.07;;;6.60;;
68300;SDS011;55146;47.468;18.806;2023-04-26T01:45:53;8.17;;;5.47;;
68300;SDS011;55146;47.468;18.806;2023-04-26T01:48:19;10.30;;;6.70;;
68300;SDS011;55146;47.468;18.806;2023-04-26T01:50:44;8.70;;;5.87;;
68300;SDS011;55146;47.468;18.806;2023-04-26T01:53:10;9.73;;;6.62;;
68300;SDS011;55146;47.468;18.806;2023-04-26T01:55:35;8.90;;;5.97;;
68300;SDS011;55146;47.468;18.806;2023-04-26T01:58:00;8.93;;;6.43;;
68300;SDS011;55146;47.468;18.806;2023-04-26T02:00:27;10.77;;;6.77;;
68300;SDS011;55146;47.468;18.806;2023-04-26T02:02:55;9.70;;;6.62;;
68300;SDS011;55146;47.468;18.806;2023-04-26T02:05:21;10.05;;;6.12;;
68300;SDS011;55146;47.468;18.806;2023-04-26T02:07:47;9.50;;;5.97;;
68300;SDS011;55146;47.468;18.806;2023-04-26T02:10:13;8.43;;;5.63;;
68300;SDS011;55146;47.468;18.806;2023-04-26T02:12:38;9.43;;;5.80;;
68300;SDS011;55146;47.468;18.806;2023-04-26T02:15:04;9.13;;;5.90;;
68300;SDS011;55146;47.468;18.806;2023-04-26T02:17:30;9.30;;;6.18;;
68300;SDS011;55146;47.468;18.806;2023-04-26T02:19:55;9.50;;;6.63;;
68300;SDS011;55146;47.468;18.806;2023-04-26T02:22:22;9.63;;;6.53;;
68300;SDS011;55146;47.468;18.806;2023-04-26T02:24:49;9.85;;;6.37;;
68300;SDS011;55146;47.468;18.806;2023-04-26T02:27:15;9.75;;;6.55;;
68300;SDS011;55146;47.468;18.806;2023-04-26T02:29:41;10.57;;;6.50;;
68300;SDS011;55146;47.468;18.806;2023-04-26T02:32:06;9.27;;;5.97;;
68300;SDS011;55146;47.468;18.806;2023-04-26T02:34:32;10.75;;;6.87;;
68300;SDS011;55146;47.468;18.806;2023-04-26T02:36:58;9.30;;;6.43;;
68300;SDS011;55146;47.468;18.806;2023-04-26T02:39:23;8.23;;;6.90;;
68300;SDS011;55146;47.468;18.806;2023-04-26T02:41:48;8.40;;;6.00;;
68300;SDS011;55146;47.468;18.806;2023-04-26T02:44:15;9.82;;;6.57;;
68300;SDS011;55146;47.468;18.806;2023-04-26T02:46:40;10.02;;;6.43;;
68300;SDS011;55146;47.468;18.806;2023-04-26T02:49:06;10.37;;;6.20;;
68300;SDS011;55146;47.468;18.806;2023-04-26T02:51:31;9.00;;;6.10;;
68300;SDS011;55146;47.468;18.806;2023-04-26T02:53:57;12.23;;;6.97;;
68300;SDS011;55146;47.468;18.806;2023-04-26T02:56:23;10.93;;;7.17;;
68300;SDS011;55146;47.468;18.806;2023-04-26T02:58:48;9.87;;;6.70;;
68300;SDS011;55146;47.468;18.806;2023-04-26T03:01:13;10.07;;;6.53;;
68300;SDS011;55146;47.468;18.806;2023-04-26T03:03:39;8.48;;;6.30;;
68300;SDS011;55146;47.468;18.806;2023-04-26T03:06:04;9.87;;;6.37;;
68300;SDS011;55146;47.468;18.806;2023-04-26T03:08:30;8.40;;;6.43;;
68300;SDS011;55146;47.468;18.806;2023-04-26T03:10:55;9.48;;;6.93;;
68300;SDS011;55146;47.468;18.806;2023-04-26T03:13:23;10.23;;;6.20;;
68300;SDS011;55146;47.468;18.806;2023-04-26T03:15:49;9.60;;;7.17;;
68300;SDS011;55146;47.468;18.806;2023-04-26T03:18:16;10.23;;;7.12;;
68300;SDS011;55146;47.468;18.806;2023-04-26T03:20:42;11.55;;;7.45;;
68300;SDS011;55146;47.468;18.806;2023-04-26T03:23:07;11.30;;;6.33;;
68300;SDS011;55146;47.468;18.806;2023-04-26T03:25:33;11.07;;;6.73;;
68300;SDS011;55146;47.468;18.806;2023-04-26T03:27:58;12.57;;;7.57;;
68300;SDS011;55146;47.468;18.806;2023-04-26T03:30:23;11.17;;;8.63;;
68300;SDS011;55146;47.468;18.806;2023-04-26T03:32:49;10.77;;;7.77;;
68300;SDS011;55146;47.468;18.806;2023-04-26T03:35:14;13.80;;;8.60;;
68300;SDS011;55146;47.468;18.806;2023-04-26T03:37:40;14.30;;;8.13;;
68300;SDS011;55146;47.468;18.806;2023-04-26T03:40:06;11.98;;;7.37;;
68300;SDS011;55146;47.468;18.806;2023-04-26T03:42:33;13.52;;;7.72;;
68300;SDS011;55146;47.468;18.806;2023-04-26T03:44:58;13.67;;;7.00;;
68300;SDS011;55146;47.468;18.806;2023-04-26T03:47:23;15.17;;;7.73;;
68300;SDS011;55146;47.468;18.806;2023-04-26T03:49:49;11.40;;;7.43;;
68300;SDS011;55146;47.468;18.806;2023-04-26T03:52:14;15.30;;;7.50;;
68300;SDS011;55146;47.468;18.806;2023-04-26T03:54:39;10.40;;;7.33;;
68300;SDS011;55146;47.468;18.806;2023-04-26T03:57:05;11.27;;;7.62;;
68300;SDS011;55146;47.468;18.806;2023-04-26T03:59:30;11.27;;;7.13;;
68300;SDS011;55146;47.468;18.806;2023-04-26T04:01:56;10.60;;;5.93;;
68300;SDS011;55146;47.468;18.806;2023-04-26T04:04:22;12.77;;;7.47;;
68300;SDS011;55146;47.468;18.806;2023-04-26T04:06:47;13.33;;;6.77;;
68300;SDS011;55146;47.468;18.806;2023-04-26T04:09:13;11.13;;;6.87;;
68300;SDS011;55146;47.468;18.806;2023-04-26T04:11:38;9.03;;;6.50;;
68300;SDS011;55146;47.468;18.806;2023-04-26T04:14:03;10.73;;;6.73;;
68300;SDS011;55146;47.468;18.806;2023-04-26T04:16:28;10.07;;;6.23;;
68300;SDS011;55146;47.468;18.806;2023-04-26T04:18:54;10.37;;;6.20;;
68300;SDS011;55146;47.468;18.806;2023-04-26T04:21:19;10.90;;;6.53;;
68300;SDS011;55146;47.468;18.806;2023-04-26T04:23:45;9.20;;;6.10;;
68300;SDS011;55146;47.468;18.806;2023-04-26T04:26:10;12.10;;;7.93;;
68300;SDS011;55146;47.468;18.806;2023-04-26T04:28:36;9.67;;;6.50;;
68300;SDS011;55146;47.468;18.806;2023-04-26T04:31:03;13.00;;;7.40;;
68300;SDS011;55146;47.468;18.806;2023-04-26T04:33:29;12.10;;;7.07;;
68300;SDS011;55146;47.468;18.806;2023-04-26T04:35:54;11.10;;;7.47;;
68300;SDS011;55146;47.468;18.806;2023-04-26T04:38:19;9.75;;;6.00;;
68300;SDS011;55146;47.468;18.806;2023-04-26T04:40:48;10.17;;;6.13;;
68300;SDS011;55146;47.468;18.806;2023-04-26T04:43:16;13.73;;;7.47;;
68300;SDS011;55146;47.468;18.806;2023-04-26T04:45:42;11.00;;;6.90;;
68300;SDS011;55146;47.468;18.806;2023-04-26T04:48:07;11.12;;;6.87;;
68300;SDS011;55146;47.468;18.806;2023-04-26T04:50:33;9.67;;;6.17;;
68300;SDS011;55146;47.468;18.806;2023-04-26T04:53:00;10.35;;;6.00;;
68300;SDS011;55146;47.468;18.806;2023-04-26T04:55:25;9.07;;;6.00;;
68300;SDS011;55146;47.468;18.806;2023-04-26T04:57:50;10.25;;;6.55;;
68300;SDS011;55146;47.468;18.806;2023-04-26T05:00:16;10.20;;;5.90;;
68300;SDS011;55146;47.468;18.806;2023-04-26T05:02:42;11.03;;;6.37;;
68300;SDS011;55146;47.468;18.806;2023-04-26T05:05:07;11.17;;;5.43;;
68300;SDS011;55146;47.468;18.806;2023-04-26T05:07:33;10.95;;;6.00;;
68300;SDS011;55146;47.468;18.806;2023-04-26T05:09:59;9.50;;;5.68;;
68300;SDS011;55146;47.468;18.806;2023-04-26T05:12:25;8.63;;;5.20;;
68300;SDS011;55146;47.468;18.806;2023-04-26T05:14:50;11.05;;;5.62;;
68300;SDS011;55146;47.468;18.806;2023-04-26T05:17:15;14.03;;;5.53;;
68300;SDS011;55146;47.468;18.806;2023-04-26T05:19:41;13.17;;;4.93;;
68300;SDS011;55146;47.468;18.806;2023-04-26T05:22:06;10.27;;;6.17;;
68300;SDS011;55146;47.468;18.806;2023-04-26T05:24:32;10.23;;;5.62;;
68300;SDS011;55146;47.468;18.806;2023-04-26T05:26:57;10.57;;;4.33;;
68300;SDS011;55146;47.468;18.806;2023-04-26T05:29:23;8.43;;;5.32;;
68300;SDS011;55146;47.468;18.806;2023-04-26T05:31:52;10.50;;;4.63;;
68300;SDS011;55146;47.468;18.806;2023-04-26T05:34:18;11.27;;;4.82;;
68300;SDS011;55146;47.468;18.806;2023-04-26T05:36:43;9.47;;;5.17;;
68300;SDS011;55146;47.468;18.806;2023-04-26T05:39:09;12.17;;;5.00;;
68300;SDS011;55146;47.468;18.806;2023-04-26T05:41:36;10.93;;;6.15;;
68300;SDS011;55146;47.468;18.806;2023-04-26T05:44:01;8.93;;;4.60;;
68300;SDS011;55146;47.468;18.806;2023-04-26T05:46:27;10.13;;;5.50;;
68300;SDS011;55146;47.468;18.806;2023-04-26T05:48:53;8.80;;;4.32;;
68300;SDS011;55146;47.468;18.806;2023-04-26T05:51:19;10.17;;;5.70;;
68300;SDS011;55146;47.468;18.806;2023-04-26T05:53:45;11.32;;;5.28;;
68300;SDS011;55146;47.468;18.806;2023-04-26T05:56:10;13.63;;;4.57;;
68300;SDS011;55146;47.468;18.806;2023-04-26T06:05:12;8.07;;;4.40;;
68300;SDS011;55146;47.468;18.806;2023-04-26T06:07:37;7.10;;;3.92;;
68300;SDS011;55146;47.468;18.806;2023-04-26T06:10:03;15.40;;;4.25;;
68300;SDS011;55146;47.468;18.806;2023-04-26T06:12:29;10.07;;;3.70;;
68300;SDS011;55146;47.468;18.806;2023-04-26T06:14:54;9.83;;;3.70;;
68300;SDS011;55146;47.468;18.806;2023-04-26T06:17:19;9.98;;;3.97;;
68300;SDS011;55146;47.468;18.806;2023-04-26T06:19:45;9.13;;;4.07;;
68300;SDS011;55146;47.468;18.806;2023-04-26T06:22:10;10.27;;;4.47;;
68300;SDS011;55146;47.468;18.806;2023-04-26T06:24:36;9.57;;;4.67;;
68300;SDS011;55146;47.468;18.806;2023-04-26T06:27:01;12.27;;;4.57;;
68300;SDS011;55146;47.468;18.806;2023-04-26T06:29:27;12.35;;;4.62;;
68300;SDS011;55146;47.468;18.806;2023-04-26T06:31:55;12.43;;;4.43;;
68300;SDS011;55146;47.468;18.806;2023-04-26T06:34:20;10.40;;;5.37;;
68300;SDS011;55146;47.468;18.806;2023-04-26T06:36:45;10.77;;;4.50;;
68300;SDS011;55146;47.468;18.806;2023-04-26T06:39:11;8.33;;;4.60;;
68300;SDS011;55146;47.468;18.806;2023-04-26T06:41:36;7.83;;;4.20;;
68300;SDS011;55146;47.468;18.806;2023-04-26T06:44:01;12.77;;;5.53;;
68300;SDS011;55146;47.468;18.806;2023-04-26T06:46:27;10.37;;;3.80;;
68300;SDS011;55146;47.468;18.806;2023-04-26T06:48:53;10.52;;;4.03;;
68300;SDS011;55146;47.468;18.806;2023-04-26T06:51:19;10.40;;;3.80;;
68300;SDS011;55146;47.468;18.806;2023-04-26T06:53:44;9.68;;;4.32;;
68300;SDS011;55146;47.468;18.806;2023-04-26T06:56:10;11.27;;;4.53;;
68300;SDS011;55146;47.468;18.806;2023-04-26T06:58:35;14.23;;;4.50;;
68300;SDS011;55146;47.468;18.806;2023-04-26T07:01:00;11.33;;;4.60;;
68300;SDS011;55146;47.468;18.806;2023-04-26T07:03:26;11.83;;;5.63;;
68300;SDS011;55146;47.468;18.806;2023-04-26T07:05:53;10.02;;;4.47;;
68300;SDS011;55146;47.468;18.806;2023-04-26T07:08:20;10.27;;;4.70;;
68300;SDS011;55146;47.468;18.806;2023-04-26T07:10:45;10.98;;;4.15;;
68300;SDS011;55146;47.468;18.806;2023-04-26T07:13:11;10.37;;;4.23;;
68300;SDS011;55146;47.468;18.806;2023-04-26T07:15:36;11.23;;;4.13;;
68300;SDS011;55146;47.468;18.806;2023-04-26T07:18:01;13.17;;;4.30;;
68300;SDS011;55146;47.468;18.806;2023-04-26T07:20:27;11.57;;;4.03;;
68300;SDS011;55146;47.468;18.806;2023-04-26T07:22:52;9.57;;;3.80;;
68300;SDS011;55146;47.468;18.806;2023-04-26T07:25:17;8.13;;;3.77;;
68300;SDS011;55146;47.468;18.806;2023-04-26T07:27:43;10.45;;;4.35;;
68300;SDS011;55146;47.468;18.806;2023-04-26T07:30:08;10.80;;;4.13;;
68300;SDS011;55146;47.468;18.806;2023-04-26T07:32:34;8.05;;;3.70;;
68300;SDS011;55146;47.468;18.806;2023-04-26T07:35:00;11.00;;;5.07;;
68300;SDS011;55146;47.468;18.806;2023-04-26T07:37:26;12.48;;;5.03;;
68300;SDS011;55146;47.468;18.806;2023-04-26T07:39:52;8.07;;;3.37;;
68300;SDS011;55146;47.468;18.806;2023-04-26T07:42:17;8.07;;;4.13;;
68300;SDS011;55146;47.468;18.806;2023-04-26T07:44:42;7.97;;;4.27;;
68300;SDS011;55146;47.468;18.806;2023-04-26T07:47:11;8.97;;;5.10;;
68300;SDS011;55146;47.468;18.806;2023-04-26T07:49:37;10.50;;;4.17;;
68300;SDS011;55146;47.468;18.806;2023-04-26T07:52:03;9.65;;;4.25;;
68300;SDS011;55146;47.468;18.806;2023-04-26T07:54:28;10.67;;;4.10;;
68300;SDS011;55146;47.468;18.806;2023-04-26T07:56:53;10.57;;;4.03;;
68300;SDS011;55146;47.468;18.806;2023-04-26T07:59:19;9.90;;;4.43;;
68300;SDS011;55146;47.468;18.806;2023-04-26T08:01:44;10.93;;;4.45;;
68300;SDS011;55146;47.468;18.806;2023-04-26T08:04:10;10.87;;;4.07;;
68300;SDS011;55146;47.468;18.806;2023-04-26T08:06:35;12.90;;;4.10;;
68300;SDS011;55146;47.468;18.806;2023-04-26T08:09:02;9.48;;;4.10;;
68300;SDS011;55146;47.468;18.806;2023-04-26T08:11:29;11.52;;;4.18;;
68300;SDS011;55146;47.468;18.806;2023-04-26T08:13:54;6.87;;;3.00;;
68300;SDS011;55146;47.468;18.806;2023-04-26T08:16:19;8.43;;;3.83;;
68300;SDS011;55146;47.468;18.806;2023-04-26T08:18:45;8.33;;;3.30;;
68300;SDS011;55146;47.468;18.806;2023-04-26T08:21:11;10.77;;;3.90;;
68300;SDS011;55146;47.468;18.806;2023-04-26T08:23:36;8.40;;;3.60;;
68300;SDS011;55146;47.468;18.806;2023-04-26T08:26:02;19.23;;;3.57;;
68300;SDS011;55146;47.468;18.806;2023-04-26T08:28:27;13.27;;;3.40;;
68300;SDS011;55146;47.468;18.806;2023-04-26T08:30:52;6.97;;;3.77;;
68300;SDS011;55146;47.468;18.806;2023-04-26T08:33:18;10.10;;;4.23;;
68300;SDS011;55146;47.468;18.806;2023-04-26T08:35:43;10.37;;;4.00;;
68300;SDS011;55146;47.468;18.806;2023-04-26T08:38:09;9.93;;;3.27;;
68300;SDS011;55146;47.468;18.806;2023-04-26T08:40:34;9.90;;;3.67;;
68300;SDS011;55146;47.468;18.806;2023-04-26T08:43:00;10.63;;;3.12;;
68300;SDS011;55146;47.468;18.806;2023-04-26T08:45:25;7.00;;;3.47;;
68300;SDS011;55146;47.468;18.806;2023-04-26T08:47:57;6.30;;;3.03;;
68300;SDS011;55146;47.468;18.806;2023-04-26T08:50:31;12.68;;;3.62;;
68300;SDS011;55146;47.468;18.806;2023-04-26T08:52:58;7.90;;;3.08;;
68300;SDS011;55146;47.468;18.806;2023-04-26T08:55:23;11.60;;;3.47;;
68300;SDS011;55146;47.468;18.806;2023-04-26T08:57:49;7.53;;;3.55;;
68300;SDS011;55146;47.468;18.806;2023-04-26T09:00:15;8.10;;;4.43;;
68300;SDS011;55146;47.468;18.806;2023-04-26T09:02:46;7.68;;;3.72;;
68300;SDS011;55146;47.468;18.806;2023-04-26T09:05:12;13.48;;;3.80;;
68300;SDS011;55146;47.468;18.806;2023-04-26T09:07:42;10.87;;;4.37;;
68300;SDS011;55146;47.468;18.806;2023-04-26T09:10:11;8.23;;;3.30;;
68300;SDS011;55146;47.468;18.806;2023-04-26T09:12:37;8.70;;;3.30;;
68300;SDS011;55146;47.468;18.806;2023-04-26T09:15:04;8.75;;;4.00;;
68300;SDS011;55146;47.468;18.806;2023-04-26T09:17:32;12.63;;;3.80;;
68300;SDS011;55146;47.468;18.806;2023-04-26T09:19:59;10.38;;;3.22;;
68300;SDS011;55146;47.468;18.806;2023-04-26T09:22:32;10.32;;;3.95;;
68300;SDS011;55146;47.468;18.806;2023-04-26T09:25:00;7.80;;;3.45;;
68300;SDS011;55146;47.468;18.806;2023-04-26T09:27:31;7.57;;;3.08;;
68300;SDS011;55146;47.468;18.806;2023-04-26T09:30:05;13.07;;;3.27;;
68300;SDS011;55146;47.468;18.806;2023-04-26T09:32:54;9.13;;;3.50;;
68300;SDS011;55146;47.468;18.806;2023-04-26T09:35:24;9.88;;;3.53;;
68300;SDS011;55146;47.468;18.806;2023-04-26T09:37:57;8.30;;;3.10;;
68300;SDS011;55146;47.468;18.806;2023-04-26T09:40:24;13.40;;;3.67;;
68300;SDS011;55146;47.468;18.806;2023-04-26T09:43:01;11.37;;;3.80;;
68300;SDS011;55146;47.468;18.806;2023-04-26T09:45:31;11.18;;;3.37;;
68300;SDS011;55146;47.468;18.806;2023-04-26T09:50:50;9.68;;;3.30;;
68300;SDS011;55146;47.468;18.806;2023-04-26T09:55:50;11.40;;;3.27;;
68300;SDS011;55146;47.468;18.806;2023-04-26T09:58:15;8.50;;;3.62;;
68300;SDS011;55146;47.468;18.806;2023-04-26T10:00:41;7.03;;;3.50;;
68300;SDS011;55146;47.468;18.806;2023-04-26T10:03:07;10.67;;;3.27;;
68300;SDS011;55146;47.468;18.806;2023-04-26T10:05:33;8.27;;;2.90;;
68300;SDS011;55146;47.468;18.806;2023-04-26T10:07:58;8.90;;;3.00;;
68300;SDS011;55146;47.468;18.806;2023-04-26T10:10:24;7.70;;;3.25;;
68300;SDS011;55146;47.468;18.806;2023-04-26T10:12:50;5.72;;;3.10;;
68300;SDS011;55146;47.468;18.806;2023-04-26T10:15:15;6.23;;;3.47;;
68300;SDS011;55146;47.468;18.806;2023-04-26T10:17:43;5.72;;;3.30;;
68300;SDS011;55146;47.468;18.806;2023-04-26T10:20:09;9.70;;;3.87;;
68300;SDS011;55146;47.468;18.806;2023-04-26T10:22:53;6.25;;;2.95;;
68300;SDS011;55146;47.468;18.806;2023-04-26T10:25:34;6.57;;;2.83;;
68300;SDS011;55146;47.468;18.806;2023-04-26T10:28:01;9.95;;;3.25;;
68300;SDS011;55146;47.468;18.806;2023-04-26T10:30:27;5.93;;;3.20;;
68300;SDS011;55146;47.468;18.806;2023-04-26T10:35:35;7.13;;;3.03;;
68300;SDS011;55146;47.468;18.806;2023-04-26T10:43:26;7.45;;;2.60;;
68300;SDS011;55146;47.468;18.806;2023-04-26T10:45:46;6.78;;;2.72;;
68300;SDS011;55146;47.468;18.806;2023-04-26T10:56:40;6.28;;;2.42;;
68300;SDS011;55146;47.468;18.806;2023-04-26T10:59:09;13.20;;;3.67;;
68300;SDS011;55146;47.468;18.806;2023-04-26T11:01:36;5.93;;;2.50;;
68300;SDS011;55146;47.468;18.806;2023-04-26T11:04:08;7.50;;;3.22;;
68300;SDS011;55146;47.468;18.806;2023-04-26T11:06:56;12.77;;;2.83;;
68300;SDS011;55146;47.468;18.806;2023-04-26T11:09:39;7.93;;;2.72;;
68300;SDS011;55146;47.468;18.806;2023-04-26T11:12:12;7.00;;;2.50;;
68300;SDS011;55146;47.468;18.806;2023-04-26T11:14:42;6.40;;;2.45;;
68300;SDS011;55146;47.468;18.806;2023-04-26T11:17:10;8.93;;;2.80;;
68300;SDS011;55146;47.468;18.806;2023-04-26T11:19:36;5.50;;;2.10;;
68300;SDS011;55146;47.468;18.806;2023-04-26T11:22:02;8.55;;;2.72;;
68300;SDS011;55146;47.468;18.806;2023-04-26T11:24:30;11.88;;;3.05;;
68300;SDS011;55146;47.468;18.806;2023-04-26T11:26:56;5.67;;;2.60;;
68300;SDS011;55146;47.468;18.806;2023-04-26T11:29:24;5.12;;;2.40;;
68300;SDS011;55146;47.468;18.806;2023-04-26T11:31:54;3.50;;;1.62;;
68300;SDS011;55146;47.468;18.806;2023-04-26T11:34:30;4.20;;;2.27;;
68300;SDS011;55146;47.468;18.806;2023-04-26T11:36:57;6.15;;;2.20;;
68300;SDS011;55146;47.468;18.806;2023-04-26T11:39:23;6.03;;;2.50;;
68300;SDS011;55146;47.468;18.806;2023-04-26T11:41:48;6.10;;;2.50;;
68300;SDS011;55146;47.468;18.806;2023-04-26T11:44:17;8.40;;;3.08;;
68300;SDS011;55146;47.468;18.806;2023-04-26T11:46:45;5.05;;;2.60;;
68300;SDS011;55146;47.468;18.806;2023-04-26T11:49:12;5.57;;;2.60;;
68300;SDS011;55146;47.468;18.806;2023-04-26T11:51:37;6.72;;;2.22;;
68300;SDS011;55146;47.468;18.806;2023-04-26T11:54:03;6.33;;;2.63;;
68300;SDS011;55146;47.468;18.806;2023-04-26T11:56:29;5.65;;;1.77;;
68300;SDS011;55146;47.468;18.806;2023-04-26T11:58:54;6.37;;;2.10;;
68300;SDS011;55146;47.468;18.806;2023-04-26T12:01:22;7.78;;;1.90;;
68300;SDS011;55146;47.468;18.806;2023-04-26T12:03:50;5.37;;;1.95;;
68300;SDS011;55146;47.468;18.806;2023-04-26T12:06:16;3.70;;;1.90;;
68300;SDS011;55146;47.468;18.806;2023-04-26T12:08:48;4.80;;;2.17;;
68300;SDS011;55146;47.468;18.806;2023-04-26T12:11:17;4.27;;;2.03;;
68300;SDS011;55146;47.468;18.806;2023-04-26T12:13:44;6.35;;;2.42;;
68300;SDS011;55146;47.468;18.806;2023-04-26T12:16:11;5.90;;;2.30;;
68300;SDS011;55146;47.468;18.806;2023-04-26T12:18:37;7.03;;;1.87;;
68300;SDS011;55146;47.468;18.806;2023-04-26T12:21:02;4.20;;;1.87;;
68300;SDS011;55146;47.468;18.806;2023-04-26T12:23:35;5.07;;;2.05;;
68300;SDS011;55146;47.468;18.806;2023-04-26T12:26:03;4.63;;;2.57;;
68300;SDS011;55146;47.468;18.806;2023-04-26T12:28:29;7.32;;;1.92;;
68300;SDS011;55146;47.468;18.806;2023-04-26T12:30:54;5.33;;;2.40;;
68300;SDS011;55146;47.468;18.806;2023-04-26T12:33:20;4.93;;;2.20;;
68300;SDS011;55146;47.468;18.806;2023-04-26T12:35:47;8.97;;;1.70;;
68300;SDS011;55146;47.468;18.806;2023-04-26T12:38:13;7.80;;;2.50;;
68300;SDS011;55146;47.468;18.806;2023-04-26T12:40:40;5.80;;;2.00;;
68300;SDS011;55146;47.468;18.806;2023-04-26T12:43:06;5.25;;;2.15;;
68300;SDS011;55146;47.468;18.806;2023-04-26T12:45:32;5.83;;;2.33;;
68300;SDS011;55146;47.468;18.806;2023-04-26T12:47:57;6.00;;;2.20;;
68300;SDS011;55146;47.468;18.806;2023-04-26T12:50:23;6.33;;;2.50;;
68300;SDS011;55146;47.468;18.806;2023-04-26T12:52:48;3.47;;;2.00;;
68300;SDS011;55146;47.468;18.806;2023-04-26T12:55:14;12.23;;;2.13;;
68300;SDS011;55146;47.468;18.806;2023-04-26T12:57:41;8.77;;;2.90;;
68300;SDS011;55146;47.468;18.806;2023-04-26T13:00:09;4.78;;;2.92;;
68300;SDS011;55146;47.468;18.806;2023-04-26T13:02:36;7.77;;;2.87;;
68300;SDS011;55146;47.468;18.806;2023-04-26T13:05:02;8.05;;;2.35;;
68300;SDS011;55146;47.468;18.806;2023-04-26T13:07:31;5.20;;;2.50;;
68300;SDS011;55146;47.468;18.806;2023-04-26T13:09:57;10.57;;;2.53;;
68300;SDS011;55146;47.468;18.806;2023-04-26T13:12:23;4.90;;;2.40;;
68300;SDS011;55146;47.468;18.806;2023-04-26T13:14:49;8.25;;;1.98;;
68300;SDS011;55146;47.468;18.806;2023-04-26T13:17:14;5.87;;;2.07;;
68300;SDS011;55146;47.468;18.806;2023-04-26T13:19:40;5.23;;;2.73;;
68300;SDS011;55146;47.468;18.806;2023-04-26T13:22:05;7.72;;;2.37;;
68300;SDS011;55146;47.468;18.806;2023-04-26T13:24:32;7.60;;;2.63;;
68300;SDS011;55146;47.468;18.806;2023-04-26T13:26:59;10.57;;;2.30;;
68300;SDS011;55146;47.468;18.806;2023-04-26T13:29:25;8.00;;;2.78;;
68300;SDS011;55146;47.468;18.806;2023-04-26T13:31:50;8.47;;;2.63;;
68300;SDS011;55146;47.468;18.806;2023-04-26T13:34:16;8.27;;;3.37;;
68300;SDS011;55146;47.468;18.806;2023-04-26T13:36:41;6.10;;;3.20;;
68300;SDS011;55146;47.468;18.806;2023-04-26T13:39:06;6.57;;;2.17;;
68300;SDS011;55146;47.468;18.806;2023-04-26T13:41:33;6.22;;;2.22;;
68300;SDS011;55146;47.468;18.806;2023-04-26T13:44:02;5.97;;;2.07;;
68300;SDS011;55146;47.468;18.806;2023-04-26T13:46:28;5.65;;;2.00;;
68300;SDS011;55146;47.468;18.806;2023-04-26T13:48:54;7.90;;;2.55;;
68300;SDS011;55146;47.468;18.806;2023-04-26T13:51:19;6.13;;;2.10;;
68300;SDS011;55146;47.468;18.806;2023-04-26T13:53:45;10.95;;;2.45;;
68300;SDS011;55146;47.468;18.806;2023-04-26T13:56:11;10.57;;;2.37;;
68300;SDS011;55146;47.468;18.806;2023-04-26T13:58:36;6.43;;;2.77;;
68300;SDS011;55146;47.468;18.806;2023-04-26T14:01:02;6.62;;;2.65;;
68300;SDS011;55146;47.468;18.806;2023-04-26T14:03:27;7.67;;;3.20;;
68300;SDS011;55146;47.468;18.806;2023-04-26T14:05:53;6.80;;;3.27;;
68300;SDS011;55146;47.468;18.806;2023-04-26T14:08:20;6.30;;;3.17;;
68300;SDS011;55146;47.468;18.806;2023-04-26T14:10:45;7.65;;;3.22;;
68300;SDS011;55146;47.468;18.806;2023-04-26T14:13:11;7.80;;;2.17;;
68300;SDS011;55146;47.468;18.806;2023-04-26T14:15:36;7.30;;;3.40;;
68300;SDS011;55146;47.468;18.806;2023-04-26T14:18:02;6.30;;;2.93;;
68300;SDS011;55146;47.468;18.806;2023-04-26T14:20:27;6.93;;;2.57;;
68300;SDS011;55146;47.468;18.806;2023-04-26T14:22:52;5.07;;;3.10;;
68300;SDS011;55146;47.468;18.806;2023-04-26T14:25:18;5.07;;;2.60;;
68300;SDS011;55146;47.468;18.806;2023-04-26T14:27:43;5.97;;;2.63;;
68300;SDS011;55146;47.468;18.806;2023-04-26T14:30:08;4.03;;;2.67;;
68300;SDS011;55146;47.468;18.806;2023-04-26T14:32:34;5.75;;;2.62;;
68300;SDS011;55146;47.468;18.806;2023-04-26T14:35:00;6.30;;;2.67;;
68300;SDS011;55146;47.468;18.806;2023-04-26T14:37:25;7.97;;;3.20;;
68300;SDS011;55146;47.468;18.806;2023-04-26T14:39:51;4.87;;;2.37;;
68300;SDS011;55146;47.468;18.806;2023-04-26T14:42:16;4.67;;;2.60;;
68300;SDS011;55146;47.468;18.806;2023-04-26T14:44:42;13.13;;;2.30;;
68300;SDS011;55146;47.468;18.806;2023-04-26T14:47:07;5.47;;;2.25;;
68300;SDS011;55146;47.468;18.806;2023-04-26T14:49:33;5.40;;;2.10;;
68300;SDS011;55146;47.468;18.806;2023-04-26T14:51:58;5.30;;;2.60;;